Time;durP1;ratioP1;P1;durP2;ratioP2;P2;SDS_P1;SDS_P2;PMS_P1;PMS_P2;Temp;Humidity;BMP_temperature;BMP_pressure;BME280_temperature;BME280_humidity;BME280_pressure;Samples;Min_cycle;Max_cycle;Signal;HPM_P1;HPM_P2
2022/07/22 00:00:48;;;;;;;;;;;23.80;72.90;;;;;;2005388;28;20343;-71
2022/07/22 00:01:46;;;;;;;;;;;23.80;72.90;;;;;;2005046;28;19913;-72
2022/07/22 00:02:44;;;;;;;;;;;23.80;72.90;;;;;;2005144;28;19944;-74
2022/07/22 00:03:43;;;;;;;;;;;23.80;72.90;;;;;;2005205;28;19905;-73
2022/07/22 00:04:41;;;;;;;;;;;23.80;73.00;;;;;;2005288;28;19992;-72
2022/07/22 00:05:40;;;;;;;;;;;23.80;73.00;;;;;;2005187;28;19906;-73
2022/07/22 00:06:38;;;;;;;;;;;23.80;73.00;;;;;;2004888;28;20319;-74
2022/07/22 00:07:38;;;;;;;;;;;23.80;73.00;;;;;;2005217;28;19928;-72
2022/07/22 00:08:36;;;;;;;;;;;23.80;72.90;;;;;;2005275;28;19960;-73
2022/07/22 00:09:35;;;;;;;;;;;23.80;72.90;;;;;;2005254;28;19905;-72
2022/07/22 00:10:33;;;;;;;;;;;23.80;73.00;;;;;;1996759;28;20327;-73
2022/07/22 00:11:32;;;;;;;;;;;23.80;72.90;;;;;;1996835;28;19909;-72
2022/07/22 00:12:30;;;;;;;;;;;23.80;72.90;;;;;;2004616;28;19906;-73
2022/07/22 00:13:29;;;;;;;;;;;23.80;72.90;;;;;;2005186;28;20359;-73
2022/07/22 00:14:27;;;;;;;;;;;23.80;72.90;;;;;;1996502;28;20304;-73
2022/07/22 00:15:26;;;;;;;;;;;23.80;72.90;;;;;;1988828;28;19910;-73
2022/07/22 00:16:24;;;;;;;;;;;23.80;72.90;;;;;;1996291;28;19956;-72
2022/07/22 00:17:23;;;;;;;;;;;23.80;72.90;;;;;;2004420;28;20330;-72
2022/07/22 00:18:21;;;;;;;;;;;23.80;73.00;;;;;;2005301;28;19917;-72
2022/07/22 00:19:20;;;;;;;;;;;23.80;73.00;;;;;;2005129;28;19996;-72
2022/07/22 00:20:19;;;;;;;;;;;23.80;73.00;;;;;;2005094;28;19905;-73
2022/07/22 00:21:18;;;;;;;;;;;23.80;73.00;;;;;;2005023;28;19909;-72
2022/07/22 00:22:16;;;;;;;;;;;23.80;73.00;;;;;;2005141;28;20265;-73
2022/07/22 00:23:15;;;;;;;;;;;23.80;73.00;;;;;;2005133;28;20359;-72
2022/07/22 00:24:13;;;;;;;;;;;23.80;73.00;;;;;;2005147;28;19912;-72
2022/07/22 00:25:13;;;;;;;;;;;23.80;73.00;;;;;;2005213;28;19924;-72
2022/07/22 00:26:12;;;;;;;;;;;23.80;73.00;;;;;;2004882;28;20002;-74
2022/07/22 00:27:10;;;;;;;;;;;23.80;73.00;;;;;;2004761;28;19954;-75
2022/07/22 00:28:09;;;;;;;;;;;23.70;73.00;;;;;;2005122;28;20248;-72
2022/07/22 00:29:07;;;;;;;;;;;23.80;73.10;;;;;;1996610;28;20442;-72
2022/07/22 00:30:06;;;;;;;;;;;23.80;73.00;;;;;;1996757;28;20280;-72
2022/07/22 00:31:05;;;;;;;;;;;23.80;73.00;;;;;;2004523;28;19911;-72
2022/07/22 00:32:04;;;;;;;;;;;23.70;73.00;;;;;;2005076;28;19905;-72
2022/07/22 00:33:02;;;;;;;;;;;23.80;73.10;;;;;;2005071;28;19909;-74
2022/07/22 00:34:01;;;;;;;;;;;23.80;73.10;;;;;;2005036;28;20352;-72
2022/07/22 00:35:00;;;;;;;;;;;23.80;73.10;;;;;;2005154;28;20399;-71
2022/07/22 00:35:59;;;;;;;;;;;23.80;73.10;;;;;;2005126;28;20348;-72
2022/07/22 00:36:57;;;;;;;;;;;23.80;73.10;;;;;;2005074;28;19905;-73
2022/07/22 00:37:56;;;;;;;;;;;23.80;73.80;;;;;;2004989;28;20272;-73
2022/07/22 00:38:54;;;;;;;;;;;23.80;73.10;;;;;;2004878;28;19928;-73
2022/07/22 00:39:53;;;;;;;;;;;23.70;73.00;;;;;;2004942;28;20007;-72
2022/07/22 00:40:51;;;;;;;;;;;23.70;73.00;;;;;;2004876;28;19912;-72
2022/07/22 00:41:50;;;;;;;;;;;23.70;73.00;;;;;;2004854;28;19914;-71
2022/07/22 00:42:49;;;;;;;;;;;23.70;73.00;;;;;;2005127;28;19972;-73
2022/07/22 00:43:48;;;;;;;;;;;23.70;73.10;;;;;;2005057;28;19906;-72
2022/07/22 00:44:46;;;;;;;;;;;23.70;73.10;;;;;;2005041;28;19916;-72
2022/07/22 00:45:45;;;;;;;;;;;23.70;73.20;;;;;;1996557;28;19918;-72
2022/07/22 00:46:43;;;;;;;;;;;23.70;73.10;;;;;;1996549;28;20375;-73
2022/07/22 00:47:42;;;;;;;;;;;23.70;73.00;;;;;;2004263;28;19905;-73
2022/07/22 00:48:40;;;;;;;;;;;23.70;73.00;;;;;;2005010;28;19905;-73
2022/07/22 00:49:39;;;;;;;;;;;23.70;73.00;;;;;;2005065;28;20352;-73
2022/07/22 00:50:37;;;;;;;;;;;23.70;73.10;;;;;;2004739;28;19996;-74
2022/07/22 00:51:37;;;;;;;;;;;23.70;73.10;;;;;;2004947;28;19913;-72
2022/07/22 00:52:36;;;;;;;;;;;23.70;73.10;;;;;;2005038;28;20383;-73
2022/07/22 00:53:35;;;;;;;;;;;23.70;73.10;;;;;;2005008;28;19937;-72
2022/07/22 00:54:33;;;;;;;;;;;23.70;73.00;;;;;;2004884;28;19905;-73
2022/07/22 00:55:33;;;;;;;;;;;23.70;73.00;;;;;;2004933;28;19906;-72
2022/07/22 00:56:31;;;;;;;;;;;23.70;73.10;;;;;;2004929;28;19906;-72
2022/07/22 00:57:30;;;;;;;;;;;23.70;73.00;;;;;;2004841;28;19912;-73
2022/07/22 00:58:28;;;;;;;;;;;23.70;73.00;;;;;;2004911;28;19957;-72
2022/07/22 00:59:27;;;;;;;;;;;23.70;73.00;;;;;;2004933;28;19913;-73
2022/07/22 01:00:26;;;;;;;;;;;23.70;73.00;;;;;;2004916;28;19956;-72
2022/07/22 01:01:24;;;;;;;;;;;23.70;73.10;;;;;;2004955;28;19909;-74
2022/07/22 01:02:23;;;;;;;;;;;23.70;73.10;;;;;;2004780;28;19973;-72
2022/07/22 01:03:22;;;;;;;;;;;23.70;73.10;;;;;;2004726;28;19952;-74
2022/07/22 01:04:20;;;;;;;;;;;23.70;73.10;;;;;;2004906;28;19913;-71
2022/07/22 01:05:20;;;;;;;;;;;23.70;73.00;;;;;;2004930;28;19940;-72
2022/07/22 01:06:19;;;;;;;;;;;23.70;73.00;;;;;;2004928;28;19905;-72
2022/07/22 01:07:17;;;;;;;;;;;23.70;73.10;;;;;;2004815;28;20348;-72
2022/07/22 01:08:16;;;;;;;;;;;23.70;73.00;;;;;;2004841;28;19963;-73
2022/07/22 01:09:14;;;;;;;;;;;23.70;73.00;;;;;;2004853;28;20365;-72
2022/07/22 01:10:13;;;;;;;;;;;23.70;73.00;;;;;;2004858;28;19956;-72
2022/07/22 01:11:16;;;;;;;;;;;23.70;73.00;;;;;;2004954;28;20291;-72
2022/07/22 01:12:14;;;;;;;;;;;23.70;73.00;;;;;;2005028;28;19906;-73
2022/07/22 01:13:13;;;;;;;;;;;23.70;73.00;;;;;;2012282;28;19905;-72
2022/07/22 01:14:11;;;;;;;;;;;23.70;73.00;;;;;;2013451;28;19906;-73
2022/07/22 01:15:10;;;;;;;;;;;23.70;73.00;;;;;;2013763;28;19921;-73
2022/07/22 01:16:09;;;;;;;;;;;23.70;73.00;;;;;;2013025;28;19894;-72
2022/07/22 01:17:08;;;;;;;;;;;23.70;73.10;;;;;;2006958;28;19905;-72
2022/07/22 01:18:06;;;;;;;;;;;23.70;73.00;;;;;;2006616;28;19909;-71
2022/07/22 01:19:05;;;;;;;;;;;23.70;73.10;;;;;;2007484;28;20217;-73
2022/07/22 01:20:04;;;;;;;;;;;23.70;73.00;;;;;;2007937;28;19906;-72
2022/07/22 01:21:04;;;;;;;;;;;23.70;73.00;;;;;;2006650;28;20332;-73
2022/07/22 01:22:03;;;;;;;;;;;23.70;73.00;;;;;;2006586;28;20260;-72
2022/07/22 01:23:01;;;;;;;;;;;23.70;73.00;;;;;;2006672;28;19945;-71
2022/07/22 01:24:00;;;;;;;;;;;23.70;73.00;;;;;;2006658;28;19964;-73
2022/07/22 01:24:58;;;;;;;;;;;23.70;73.00;;;;;;2006884;28;19910;-72
2022/07/22 01:25:57;;;;;;;;;;;23.70;73.00;;;;;;2006477;28;19960;-72
2022/07/22 01:26:56;;;;;;;;;;;23.70;73.00;;;;;;2006011;28;20355;-72
2022/07/22 01:27:55;;;;;;;;;;;23.70;73.00;;;;;;2005964;28;19905;-72
2022/07/22 01:28:53;;;;;;;;;;;23.70;73.00;;;;;;2006202;28;19906;-73
2022/07/22 01:29:52;;;;;;;;;;;23.70;73.00;;;;;;2005997;28;20025;-72
2022/07/22 01:30:51;;;;;;;;;;;23.70;73.00;;;;;;2006076;28;19906;-72
2022/07/22 01:31:49;;;;;;;;;;;23.70;73.00;;;;;;2005941;28;19960;-72
2022/07/22 01:32:48;;;;;;;;;;;23.60;73.00;;;;;;2006268;28;19973;-73
2022/07/22 01:33:46;;;;;;;;;;;23.70;73.00;;;;;;2006061;28;20264;-72
2022/07/22 01:34:45;;;;;;;;;;;23.60;72.90;;;;;;2005987;28;20182;-72
2022/07/22 01:35:43;;;;;;;;;;;23.60;72.90;;;;;;2005960;28;19905;-72
2022/07/22 01:36:42;;;;;;;;;;;23.60;72.90;;;;;;2005765;28;20297;-72
2022/07/22 01:37:40;;;;;;;;;;;23.60;72.90;;;;;;2005676;28;19909;-72
2022/07/22 01:38:39;;;;;;;;;;;23.60;72.90;;;;;;2005724;28;19906;-73
2022/07/22 01:39:37;;;;;;;;;;;23.60;72.90;;;;;;2005620;28;20000;-72
2022/07/22 01:40:36;;;;;;;;;;;23.60;72.90;;;;;;2005930;28;20318;-73
2022/07/22 01:41:34;;;;;;;;;;;23.60;72.90;;;;;;2005831;28;20276;-73
2022/07/22 01:42:33;;;;;;;;;;;23.60;72.80;;;;;;2005875;28;19906;-72
2022/07/22 01:43:31;;;;;;;;;;;23.60;72.90;;;;;;2005813;28;19912;-73
2022/07/22 01:44:30;;;;;;;;;;;23.60;72.90;;;;;;2005779;28;19929;-73
2022/07/22 01:45:29;;;;;;;;;;;23.60;72.90;;;;;;2005838;28;19928;-74
2022/07/22 01:46:27;;;;;;;;;;;23.60;72.80;;;;;;2005677;28;19959;-71
2022/07/22 01:47:26;;;;;;;;;;;23.60;72.80;;;;;;2005733;28;19910;-70
2022/07/22 01:48:25;;;;;;;;;;;23.60;72.90;;;;;;2005984;28;20009;-72
2022/07/22 01:49:23;;;;;;;;;;;23.60;72.80;;;;;;2005997;28;19964;-72
2022/07/22 01:50:22;;;;;;;;;;;23.60;72.80;;;;;;2005810;28;19905;-73
2022/07/22 01:51:20;;;;;;;;;;;23.60;72.80;;;;;;2005533;28;19944;-73
2022/07/22 01:52:19;;;;;;;;;;;23.60;72.80;;;;;;2005729;28;19921;-73
2022/07/22 01:53:18;;;;;;;;;;;23.60;72.80;;;;;;2005876;28;19906;-73
2022/07/22 01:54:16;;;;;;;;;;;23.60;72.80;;;;;;2005746;28;19926;-74
2022/07/22 01:55:15;;;;;;;;;;;23.60;72.80;;;;;;2005659;28;19905;-73
2022/07/22 01:56:14;;;;;;;;;;;23.60;72.80;;;;;;1997246;28;19905;-72
2022/07/22 01:57:12;;;;;;;;;;;23.60;72.80;;;;;;1997243;28;20489;-71
2022/07/22 01:58:11;;;;;;;;;;;23.60;72.80;;;;;;2005174;28;20040;-72
2022/07/22 01:59:09;;;;;;;;;;;23.60;72.80;;;;;;2005678;28;19906;-72
2022/07/22 02:00:09;;;;;;;;;;;23.60;72.80;;;;;;1997278;28;19910;-73
2022/07/22 02:01:08;;;;;;;;;;;23.60;72.80;;;;;;1997111;28;19906;-73
2022/07/22 02:02:06;;;;;;;;;;;23.60;72.80;;;;;;2005373;28;20000;-71
2022/07/22 02:03:06;;;;;;;;;;;23.60;72.80;;;;;;2005545;28;19912;-72
2022/07/22 02:04:04;;;;;;;;;;;23.60;72.80;;;;;;2005621;28;19960;-72
2022/07/22 02:05:03;;;;;;;;;;;23.60;72.80;;;;;;1997247;28;19909;-72
2022/07/22 02:06:02;;;;;;;;;;;23.60;72.80;;;;;;1997313;28;19905;-72
2022/07/22 02:07:01;;;;;;;;;;;23.60;72.80;;;;;;2005230;28;19906;-73
2022/07/22 02:08:03;;;;;;;;;;;23.60;72.80;;;;;;2005642;28;19952;-72
2022/07/22 02:09:02;;;;;;;;;;;23.60;72.80;;;;;;2005654;28;19952;-72
2022/07/22 02:10:00;;;;;;;;;;;23.60;72.80;;;;;;2005694;28;19987;-72
2022/07/22 02:10:59;;;;;;;;;;;23.60;72.80;;;;;;2005618;28;19906;-73
2022/07/22 02:11:57;;;;;;;;;;;23.60;72.80;;;;;;2005557;28;19906;-72
2022/07/22 02:12:57;;;;;;;;;;;23.60;72.80;;;;;;2005362;28;20360;-73
2022/07/22 02:13:55;;;;;;;;;;;23.60;72.70;;;;;;2005557;28;20359;-72
2022/07/22 02:14:54;;;;;;;;;;;23.60;72.80;;;;;;2005592;28;19906;-73
2022/07/22 02:15:53;;;;;;;;;;;23.60;72.80;;;;;;2005448;28;19909;-73
2022/07/22 02:16:51;;;;;;;;;;;23.60;72.80;;;;;;2005566;28;19956;-72
2022/07/22 02:17:50;;;;;;;;;;;23.60;72.80;;;;;;2005589;28;19905;-71
2022/07/22 02:18:48;;;;;;;;;;;23.50;72.60;;;;;;2005578;28;19944;-74
2022/07/22 02:19:47;;;;;;;;;;;23.60;72.70;;;;;;2005530;28;19905;-72
2022/07/22 02:20:46;;;;;;;;;;;23.60;72.70;;;;;;2005550;28;19905;-71
2022/07/22 02:21:44;;;;;;;;;;;23.60;72.70;;;;;;2005559;28;20280;-74
2022/07/22 02:22:43;;;;;;;;;;;23.50;72.60;;;;;;2005604;28;19980;-73
2022/07/22 02:23:41;;;;;;;;;;;23.50;72.60;;;;;;2005637;28;20004;-73
2022/07/22 02:24:40;;;;;;;;;;;23.50;72.60;;;;;;2005743;28;20428;-73
2022/07/22 02:25:39;;;;;;;;;;;23.60;72.70;;;;;;2005658;28;19913;-73
2022/07/22 02:26:38;;;;;;;;;;;23.60;72.70;;;;;;1967684;28;1113382;-73
2022/07/22 02:27:37;;;;;;;;;;;23.60;72.70;;;;;;2006311;28;20323;-72
2022/07/22 02:28:36;;;;;;;;;;;23.50;72.60;;;;;;2006678;28;20374;-72
2022/07/22 02:29:34;;;;;;;;;;;23.60;72.70;;;;;;2006022;28;19905;-73
2022/07/22 02:30:33;;;;;;;;;;;23.60;72.70;;;;;;2006360;28;19905;-72
2022/07/22 02:31:31;;;;;;;;;;;23.50;72.60;;;;;;2005918;28;19912;-72
2022/07/22 02:32:30;;;;;;;;;;;23.50;72.60;;;;;;2005935;28;20008;-72
2022/07/22 02:33:29;;;;;;;;;;;23.60;72.70;;;;;;2006026;28;20351;-72
2022/07/22 02:34:28;;;;;;;;;;;23.60;72.70;;;;;;2005890;28;19913;-73
2022/07/22 02:35:26;;;;;;;;;;;23.50;72.50;;;;;;2005906;28;19913;-74
2022/07/22 02:36:25;;;;;;;;;;;23.60;72.60;;;;;;2005890;28;19913;-73
2022/07/22 02:37:24;;;;;;;;;;;23.50;72.50;;;;;;2005811;28;19910;-73
2022/07/22 02:38:22;;;;;;;;;;;23.50;72.50;;;;;;2005980;28;20004;-73
2022/07/22 02:39:21;;;;;;;;;;;23.50;72.50;;;;;;2005830;28;19986;-74
2022/07/22 02:40:20;;;;;;;;;;;23.50;72.50;;;;;;2005785;28;19937;-71
2022/07/22 02:41:18;;;;;;;;;;;23.50;72.50;;;;;;2005804;28;20280;-71
2022/07/22 02:42:18;;;;;;;;;;;23.50;72.50;;;;;;1997347;28;20176;-72
2022/07/22 02:43:17;;;;;;;;;;;23.50;72.50;;;;;;1997514;28;19964;-73
2022/07/22 02:44:15;;;;;;;;;;;23.50;72.50;;;;;;2005547;28;19912;-73
2022/07/22 02:45:14;;;;;;;;;;;23.50;72.50;;;;;;2005800;28;20364;-73
2022/07/22 02:46:12;;;;;;;;;;;23.50;72.50;;;;;;2005861;28;19905;-72
2022/07/22 02:47:11;;;;;;;;;;;23.50;72.50;;;;;;2005745;28;20000;-72
2022/07/22 02:48:09;;;;;;;;;;;23.50;72.50;;;;;;2005828;28;19959;-73
2022/07/22 02:49:08;;;;;;;;;;;23.50;72.40;;;;;;2005946;28;19906;-72
2022/07/22 02:50:07;;;;;;;;;;;23.50;72.50;;;;;;2005878;28;19909;-73
2022/07/22 02:51:05;;;;;;;;;;;23.50;72.40;;;;;;2005726;28;19912;-73
2022/07/22 02:52:04;;;;;;;;;;;23.50;72.40;;;;;;2005646;28;19947;-74
2022/07/22 02:53:03;;;;;;;;;;;23.50;72.50;;;;;;2005761;28;19905;-72
2022/07/22 02:54:01;;;;;;;;;;;23.50;72.40;;;;;;2005805;28;19909;-72
2022/07/22 02:55:00;;;;;;;;;;;23.50;72.40;;;;;;2005776;28;20021;-72
2022/07/22 02:55:58;;;;;;;;;;;23.50;72.40;;;;;;2005837;28;19906;-73
2022/07/22 02:56:57;;;;;;;;;;;23.50;72.40;;;;;;2005626;28;19913;-72
2022/07/22 02:57:55;;;;;;;;;;;23.50;72.50;;;;;;2005659;28;20000;-72
2022/07/22 02:58:54;;;;;;;;;;;23.50;72.50;;;;;;2005727;28;19977;-73
2022/07/22 02:59:53;;;;;;;;;;;23.50;72.40;;;;;;1997260;28;20425;-72
2022/07/22 03:00:51;;;;;;;;;;;23.50;72.40;;;;;;1997316;28;19937;-73
2022/07/22 03:01:50;;;;;;;;;;;23.50;72.50;;;;;;2005046;28;20293;-72
2022/07/22 03:02:49;;;;;;;;;;;23.50;72.40;;;;;;2005675;28;19905;-72
2022/07/22 03:03:48;;;;;;;;;;;23.50;72.40;;;;;;2005457;28;19951;-73
2022/07/22 03:04:46;;;;;;;;;;;23.50;72.40;;;;;;2005544;28;19910;-73
2022/07/22 03:05:45;;;;;;;;;;;23.50;72.40;;;;;;2005731;28;19906;-73
2022/07/22 03:06:43;;;;;;;;;;;23.40;72.40;;;;;;2005584;28;19906;-73
2022/07/22 03:07:42;;;;;;;;;;;23.50;72.40;;;;;;2005666;28;19940;-73
2022/07/22 03:08:40;;;;;;;;;;;23.50;72.40;;;;;;2005590;28;19952;-72
2022/07/22 03:09:39;;;;;;;;;;;23.50;72.40;;;;;;2005713;28;19913;-73
2022/07/22 03:10:38;;;;;;;;;;;23.50;72.40;;;;;;2005675;28;19984;-71
2022/07/22 03:11:36;;;;;;;;;;;23.40;72.40;;;;;;2005751;28;19909;-73
2022/07/22 03:12:35;;;;;;;;;;;23.40;72.40;;;;;;2005596;28;19914;-73
2022/07/22 03:13:33;;;;;;;;;;;23.40;72.40;;;;;;2005722;28;19906;-73
2022/07/22 03:14:33;;;;;;;;;;;23.50;72.40;;;;;;2005738;28;19912;-73
2022/07/22 03:15:32;;;;;;;;;;;23.50;72.40;;;;;;2005561;28;19996;-73
2022/07/22 03:16:30;;;;;;;;;;;23.50;72.40;;;;;;2005475;28;19906;-74
2022/07/22 03:17:32;;;;;;;;;;;23.50;72.40;;;;;;2005541;28;20415;-73
2022/07/22 03:18:31;;;;;;;;;;;23.50;72.40;;;;;;2005548;28;20382;-73
2022/07/22 03:19:31;;;;;;;;;;;23.50;72.30;;;;;;2005758;28;20027;-73
2022/07/22 03:20:29;;;;;;;;;;;23.40;72.30;;;;;;2005509;28;19941;-73
2022/07/22 03:21:28;;;;;;;;;;;23.50;72.30;;;;;;2005425;28;20348;-73
2022/07/22 03:22:26;;;;;;;;;;;23.40;72.20;;;;;;2005577;28;19959;-73
2022/07/22 03:23:25;;;;;;;;;;;23.50;72.40;;;;;;2005642;28;19985;-71
2022/07/22 03:24:24;;;;;;;;;;;23.40;72.30;;;;;;2005497;28;20000;-71
2022/07/22 03:25:22;;;;;;;;;;;23.50;73.00;;;;;;2005515;28;19905;-73
2022/07/22 03:26:21;;;;;;;;;;;23.40;72.20;;;;;;2005527;28;20017;-73
2022/07/22 03:27:20;;;;;;;;;;;23.50;72.30;;;;;;2005271;28;19924;-73
2022/07/22 03:28:19;;;;;;;;;;;23.50;72.30;;;;;;2005229;28;20338;-73
2022/07/22 03:29:17;;;;;;;;;;;23.50;72.30;;;;;;2005433;28;19960;-74
2022/07/22 03:30:16;;;;;;;;;;;23.50;72.30;;;;;;2005489;28;19967;-73
2022/07/22 03:31:14;;;;;;;;;;;23.40;72.20;;;;;;2005514;28;19905;-72
2022/07/22 03:32:13;;;;;;;;;;;23.50;72.30;;;;;;2005644;28;19912;-73
2022/07/22 03:33:11;;;;;;;;;;;23.50;72.30;;;;;;2005536;28;20280;-72
2022/07/22 03:34:10;;;;;;;;;;;23.50;72.30;;;;;;2005529;28;20399;-72
2022/07/22 03:35:08;;;;;;;;;;;23.50;72.30;;;;;;2005485;28;20348;-72
2022/07/22 03:36:07;;;;;;;;;;;23.40;72.20;;;;;;2005421;28;19909;-72
2022/07/22 03:37:06;;;;;;;;;;;23.40;72.20;;;;;;2005414;28;19911;-72
2022/07/22 03:38:04;;;;;;;;;;;23.40;72.20;;;;;;2004714;28;19912;-71
2022/07/22 03:39:03;;;;;;;;;;;23.40;72.20;;;;;;2004802;28;20347;-72
2022/07/22 03:40:02;;;;;;;;;;;23.40;72.20;;;;;;2005167;28;19971;-73
2022/07/22 03:41:00;;;;;;;;;;;23.40;72.20;;;;;;2004654;28;20260;-73
2022/07/22 03:41:59;;;;;;;;;;;23.40;72.20;;;;;;2005339;28;19917;-74
2022/07/22 03:42:57;;;;;;;;;;;23.40;72.20;;;;;;2005317;28;19937;-72
2022/07/22 03:43:56;;;;;;;;;;;23.40;72.30;;;;;;2005313;28;19956;-73
2022/07/22 03:44:55;;;;;;;;;;;23.40;72.20;;;;;;2005332;28;19910;-73
2022/07/22 03:45:53;;;;;;;;;;;23.40;72.20;;;;;;2005324;28;19959;-72
2022/07/22 03:46:51;;;;;;;;;;;23.40;72.20;;;;;;2005273;28;20013;-72
2022/07/22 03:47:50;;;;;;;;;;;23.40;72.20;;;;;;1996904;28;19957;-73
2022/07/22 03:48:49;;;;;;;;;;;23.40;72.20;;;;;;1996873;28;20268;-72
2022/07/22 03:49:48;;;;;;;;;;;23.40;72.20;;;;;;2004873;28;19992;-71
2022/07/22 03:50:46;;;;;;;;;;;23.40;72.20;;;;;;2005253;28;19909;-72
2022/07/22 03:51:45;;;;;;;;;;;23.40;72.20;;;;;;2005345;28;19929;-74
2022/07/22 03:52:43;;;;;;;;;;;23.40;72.20;;;;;;2005201;28;19910;-74
2022/07/22 03:53:42;;;;;;;;;;;23.40;72.20;;;;;;2005330;28;19905;-73
2022/07/22 03:54:43;;;;;;;;;;;23.40;72.20;;;;;;2005354;28;19909;-71
2022/07/22 03:55:42;;;;;;;;;;;23.40;72.20;;;;;;2005284;28;20415;-72
2022/07/22 03:56:40;;;;;;;;;;;23.40;72.20;;;;;;2005195;28;19971;-74
2022/07/22 03:57:39;;;;;;;;;;;23.40;72.20;;;;;;2005223;28;19906;-72
2022/07/22 03:58:37;;;;;;;;;;;23.40;72.20;;;;;;2005255;28;19992;-75
2022/07/22 03:59:36;;;;;;;;;;;23.40;72.20;;;;;;2005266;28;20438;-71
2022/07/22 04:00:35;;;;;;;;;;;23.40;72.10;;;;;;2005357;28;20276;-72
2022/07/22 04:01:33;;;;;;;;;;;23.40;72.10;;;;;;2005406;28;20360;-72
2022/07/22 04:02:32;;;;;;;;;;;23.40;72.20;;;;;;2007143;28;20053;-72
2022/07/22 04:03:30;;;;;;;;;;;23.40;72.10;;;;;;2012258;28;19916;-74
2022/07/22 04:04:29;;;;;;;;;;;23.40;72.10;;;;;;2013262;28;19906;-73
2022/07/22 04:05:27;;;;;;;;;;;23.40;72.10;;;;;;2013269;28;19909;-74
2022/07/22 04:06:26;;;;;;;;;;;23.40;72.10;;;;;;2007989;28;19906;-72
2022/07/22 04:07:24;;;;;;;;;;;23.40;72.10;;;;;;2006527;28;19905;-72
2022/07/22 04:08:23;;;;;;;;;;;23.40;72.10;;;;;;2006159;28;19913;-73
2022/07/22 04:09:21;;;;;;;;;;;23.40;72.10;;;;;;2005425;28;19909;-72
2022/07/22 04:10:20;;;;;;;;;;;23.40;72.10;;;;;;2004699;28;19906;-73
2022/07/22 04:11:19;;;;;;;;;;;23.40;72.10;;;;;;2005179;28;19905;-73
2022/07/22 04:12:17;;;;;;;;;;;23.40;72.10;;;;;;2005478;28;20272;-72
2022/07/22 04:13:16;;;;;;;;;;;23.40;72.10;;;;;;1996751;28;20321;-72
2022/07/22 04:14:14;;;;;;;;;;;23.40;72.10;;;;;;1996812;28;19909;-72
2022/07/22 04:15:13;;;;;;;;;;;23.40;72.10;;;;;;2004798;28;19955;-72
2022/07/22 04:16:11;;;;;;;;;;;23.40;72.10;;;;;;2005228;28;19912;-72
2022/07/22 04:17:10;;;;;;;;;;;23.40;72.10;;;;;;2005227;28;19912;-72
2022/07/22 04:18:08;;;;;;;;;;;23.40;72.10;;;;;;2005147;28;19912;-72
2022/07/22 04:19:07;;;;;;;;;;;23.40;72.10;;;;;;2005249;28;20393;-73
2022/07/22 04:20:06;;;;;;;;;;;23.40;72.10;;;;;;1996731;28;19906;-72
2022/07/22 04:21:04;;;;;;;;;;;23.40;72.10;;;;;;1996943;28;19994;-73
2022/07/22 04:22:03;;;;;;;;;;;23.40;72.10;;;;;;2004604;28;19913;-72
2022/07/22 04:23:02;;;;;;;;;;;23.40;72.10;;;;;;2005239;28;19906;-74
2022/07/22 04:24:00;;;;;;;;;;;23.40;72.10;;;;;;2005136;28;19905;-72
2022/07/22 04:24:59;;;;;;;;;;;23.40;72.10;;;;;;2005141;28;19960;-74
2022/07/22 04:25:58;;;;;;;;;;;23.40;72.10;;;;;;2005197;28;19906;-73
2022/07/22 04:26:56;;;;;;;;;;;23.40;72.30;;;;;;1996528;28;19953;-74
2022/07/22 04:27:56;;;;;;;;;;;23.40;72.20;;;;;;1996720;28;19949;-73
2022/07/22 04:28:54;;;;;;;;;;;23.40;72.10;;;;;;2004662;28;19913;-73
2022/07/22 04:29:53;;;;;;;;;;;23.40;72.10;;;;;;2005195;28;19951;-73
2022/07/22 04:30:51;;;;;;;;;;;23.40;72.10;;;;;;2005023;28;20249;-74
2022/07/22 04:31:50;;;;;;;;;;;23.40;72.30;;;;;;2005079;28;19905;-73
2022/07/22 04:32:48;;;;;;;;;;;23.40;72.30;;;;;;2005079;28;20352;-71
2022/07/22 04:33:47;;;;;;;;;;;23.40;72.30;;;;;;2005154;28;19909;-73
2022/07/22 04:34:45;;;;;;;;;;;23.30;72.20;;;;;;2004978;28;19912;-72
2022/07/22 04:35:44;;;;;;;;;;;23.30;72.20;;;;;;2005148;28;19906;-72
2022/07/22 04:36:42;;;;;;;;;;;23.30;72.20;;;;;;2005077;28;19996;-72
2022/07/22 04:37:41;;;;;;;;;;;23.30;72.20;;;;;;2005154;28;19905;-72
2022/07/22 04:38:39;;;;;;;;;;;23.30;72.20;;;;;;2005208;28;19912;-72
2022/07/22 04:39:38;;;;;;;;;;;23.30;72.20;;;;;;2005030;28;20461;-74
2022/07/22 04:40:36;;;;;;;;;;;23.30;72.20;;;;;;2005058;28;19909;-73
2022/07/22 04:41:35;;;;;;;;;;;23.30;72.20;;;;;;2004979;28;19909;-73
2022/07/22 04:42:33;;;;;;;;;;;23.30;72.20;;;;;;2005168;28;19912;-73
2022/07/22 04:43:32;;;;;;;;;;;23.30;72.20;;;;;;2005004;28;19999;-74
2022/07/22 04:44:30;;;;;;;;;;;23.30;72.10;;;;;;2004964;28;19905;-73
2022/07/22 04:45:29;;;;;;;;;;;23.30;72.10;;;;;;2004888;28;19909;-74
2022/07/22 04:46:27;;;;;;;;;;;23.30;72.10;;;;;;2005005;28;20360;-73
2022/07/22 04:47:26;;;;;;;;;;;23.40;72.20;;;;;;2004954;28;19912;-72
2022/07/22 04:48:24;;;;;;;;;;;23.30;72.10;;;;;;2005075;28;20282;-74
2022/07/22 04:49:25;;;;;;;;;;;23.30;72.20;;;;;;2004886;28;19917;-72
2022/07/22 04:50:24;;;;;;;;;;;23.30;72.10;;;;;;2004960;28;19910;-74
2022/07/22 04:51:24;;;;;;;;;;;23.30;72.10;;;;;;2004915;28;20356;-73
2022/07/22 04:52:22;;;;;;;;;;;23.30;72.20;;;;;;2004814;28;20284;-73
2022/07/22 04:53:21;;;;;;;;;;;23.30;72.20;;;;;;2005006;28;19996;-72
2022/07/22 04:54:19;;;;;;;;;;;23.30;72.20;;;;;;2004931;28;19905;-73
2022/07/22 04:55:18;;;;;;;;;;;23.30;72.50;;;;;;2004874;28;19911;-78
2022/07/22 04:56:16;;;;;;;;;;;23.30;72.20;;;;;;2004935;28;19910;-74
2022/07/22 04:57:15;;;;;;;;;;;23.30;72.10;;;;;;2004988;28;20337;-74
2022/07/22 04:58:13;;;;;;;;;;;23.40;72.60;;;;;;2004861;28;19905;-75
2022/07/22 04:59:12;;;;;;;;;;;23.40;72.90;;;;;;2004834;28;19913;-74
2022/07/22 05:00:10;;;;;;;;;;;23.40;72.80;;;;;;2004846;28;19905;-74
2022/07/22 05:01:09;;;;;;;;;;;23.40;72.80;;;;;;2004943;28;20360;-77
2022/07/22 05:02:08;;;;;;;;;;;23.30;72.80;;;;;;2004898;28;19912;-73
2022/07/22 05:03:06;;;;;;;;;;;23.40;72.90;;;;;;2005100;28;20398;-74
2022/07/22 05:04:05;;;;;;;;;;;23.40;72.90;;;;;;2004896;28;20280;-74
2022/07/22 05:05:03;;;;;;;;;;;23.30;72.90;;;;;;2004954;28;20391;-75
2022/07/22 05:06:02;;;;;;;;;;;23.30;73.00;;;;;;2004914;28;19912;-73
2022/07/22 05:07:02;;;;;;;;;;;23.40;73.50;;;;;;2004841;28;19929;-74
2022/07/22 05:08:01;;;;;;;;;;;23.40;73.10;;;;;;2004992;28;19967;-78
2022/07/22 05:08:59;;;;;;;;;;;23.40;73.60;;;;;;2004835;28;19905;-74
2022/07/22 05:09:58;;;;;;;;;;;23.40;73.60;;;;;;2004966;28;19912;-74
2022/07/22 05:10:56;;;;;;;;;;;23.40;73.60;;;;;;2004894;28;19913;-72
2022/07/22 05:11:55;;;;;;;;;;;23.50;74.30;;;;;;2004883;28;19906;-74
2022/07/22 05:12:53;;;;;;;;;;;23.50;73.90;;;;;;2004378;28;20351;-72
2022/07/22 05:13:52;;;;;;;;;;;23.40;73.60;;;;;;2004383;28;20422;-73
2022/07/22 05:14:51;;;;;;;;;;;23.40;73.60;;;;;;2004768;28;19951;-73
2022/07/22 05:15:49;;;;;;;;;;;23.40;73.60;;;;;;2004633;28;19952;-73
2022/07/22 05:16:48;;;;;;;;;;;23.40;73.60;;;;;;2004764;28;19905;-73
2022/07/22 05:17:46;;;;;;;;;;;23.40;73.60;;;;;;2004899;28;19909;-73
2022/07/22 05:18:44;;;;;;;;;;;23.40;73.60;;;;;;2004734;28;19913;-72
2022/07/22 05:19:43;;;;;;;;;;;23.30;73.50;;;;;;2005066;28;19952;-72
2022/07/22 05:20:42;;;;;;;;;;;23.30;73.40;;;;;;2004809;28;19937;-73
2022/07/22 05:21:40;;;;;;;;;;;23.30;73.40;;;;;;1996220;28;19920;-72
2022/07/22 05:22:39;;;;;;;;;;;23.30;73.40;;;;;;1996415;28;19956;-72
2022/07/22 05:23:37;;;;;;;;;;;23.30;73.40;;;;;;2004199;28;19988;-72
2022/07/22 05:24:36;;;;;;;;;;;23.30;73.40;;;;;;2004429;28;19912;-72
2022/07/22 05:25:34;;;;;;;;;;;23.30;73.30;;;;;;2004801;28;19905;-71
2022/07/22 05:26:33;;;;;;;;;;;23.30;73.40;;;;;;2004766;28;20265;-74
2022/07/22 05:27:31;;;;;;;;;;;23.30;73.40;;;;;;2004705;28;19956;-72
2022/07/22 05:28:30;;;;;;;;;;;23.30;73.40;;;;;;1996416;28;19912;-72
2022/07/22 05:29:29;;;;;;;;;;;23.30;73.40;;;;;;1996411;28;19949;-73
2022/07/22 05:30:27;;;;;;;;;;;23.30;73.40;;;;;;2004372;28;19905;-73
2022/07/22 05:31:26;;;;;;;;;;;23.30;73.40;;;;;;2004763;28;19905;-72
2022/07/22 05:32:24;;;;;;;;;;;23.20;73.30;;;;;;2004748;28;19956;-73
2022/07/22 05:33:23;;;;;;;;;;;23.20;73.20;;;;;;2004734;28;20011;-73
2022/07/22 05:34:21;;;;;;;;;;;23.20;73.20;;;;;;2004881;28;19909;-74
2022/07/22 05:35:20;;;;;;;;;;;23.20;73.20;;;;;;2004845;28;19910;-73
2022/07/22 05:36:19;;;;;;;;;;;23.20;73.20;;;;;;2004853;28;20352;-72
2022/07/22 05:37:18;;;;;;;;;;;23.30;73.30;;;;;;2004782;28;19905;-73
2022/07/22 05:38:16;;;;;;;;;;;23.30;73.30;;;;;;2004814;28;19948;-72
2022/07/22 05:39:15;;;;;;;;;;;23.30;73.30;;;;;;2004771;28;19906;-72
2022/07/22 05:40:13;;;;;;;;;;;23.30;73.20;;;;;;2004775;28;20000;-72
2022/07/22 05:41:12;;;;;;;;;;;23.30;73.20;;;;;;2004600;28;19996;-73